»·PEaware :: N8833D KJFK-KDCA

N8833D :: KJFK-KDCA

FLIGHT INFORMATION

Flight Status: Arrived
Operator: Privately registered:
United States
More flights under this callsign
Pilot: Cooper L. (8467)
Aircraft: ECLIPSE 500
(EA50)
More flights by this aircraft type
Origin: KJFK Kennedy Intl
United States
Destination: KDCA Ronald Reagan Washington Natl
United States
More flights between these airports :: More routes between these airports
Route: JFK J222 RBV COPES J75 MURPH TERPZ FERGI
File this flight plan on PilotEdge
Remarks:
Altitude:
(Current/Filed)
14,000ft
Speed:
(Current/Filed)
350kts
Departed: 04-Apr-17 08:32 PM
Arrived: 04-Apr-17 09:22 PM
Distance/Time
Traveled:
185nm/0:50
Distance/Time
To Go:
Arrived

Flight Plot

Page will automatically refresh every two minutes.

Flight plan parsing failed; only flown route is shown


Map Options




Map Legend


Flown Route
Filed Route
Departure Airport
Arrival Airport
Navaid (VOR, NDB)
Fix

Horizontal Profiles

Position Reports

Time Latitude Longitude Heading Altitude Ground
Speed
04-Apr-17 20:32 40.648179 -73.816181 139 15ft 16kts
04-Apr-17 20:33 40.642623 -73.804305 121 274ft 122kts
04-Apr-17 20:34 40.617751 -73.818576 277 2326ft 222kts
04-Apr-17 20:35 40.607270 -73.905564 259 4807ft 274kts
04-Apr-17 20:36 40.584853 -73.996246 257 8242ft 250kts
04-Apr-17 20:37 40.562377 -74.080808 253 10559ft 250kts
04-Apr-17 20:38 40.520720 -74.153073 227 12378ft 266kts
04-Apr-17 20:39 40.463655 -74.215113 227 13886ft 270kts
04-Apr-17 20:40 40.403046 -74.280497 226 13958ft 293kts
04-Apr-17 20:41 40.340594 -74.347453 226 13983ft 292kts
04-Apr-17 20:42 40.278615 -74.413746 226 13976ft 293kts
04-Apr-17 20:43 40.215966 -74.480672 227 13955ft 293kts
04-Apr-17 20:44 40.196875 -74.576096 265 13956ft 276kts
04-Apr-17 20:45 40.188571 -74.674409 265 13963ft 277kts
04-Apr-17 20:46 40.180665 -74.772170 265 13963ft 277kts
04-Apr-17 20:47 40.172767 -74.870191 265 13962ft 278kts
04-Apr-17 20:48 40.165442 -74.960419 265 13961ft 278kts
04-Apr-17 20:49 40.157516 -75.057039 265 13960ft 278kts
04-Apr-17 20:50 40.149248 -75.156990 265 13959ft 278kts
04-Apr-17 20:51 40.141100 -75.254414 265 13958ft 279kts
04-Apr-17 20:52 40.132906 -75.351268 265 13957ft 281kts
04-Apr-17 20:53 40.089588 -75.433107 233 13956ft 295kts
04-Apr-17 20:54 40.034600 -75.509900 233 13956ft 295kts
04-Apr-17 20:55 39.979334 -75.586388 233 13955ft 295kts
04-Apr-17 20:56 39.923938 -75.662739 232 13988ft 295kts
04-Apr-17 20:57 39.875267 -75.739467 236 13990ft 293kts
04-Apr-17 20:58 39.825928 -75.819979 237 13989ft 292kts
04-Apr-17 20:59 39.778021 -75.899322 237 13988ft 293kts
04-Apr-17 21:00 39.727964 -75.981954 237 13987ft 293kts
04-Apr-17 21:01 39.677515 -76.064997 237 13987ft 293kts
04-Apr-17 21:02 39.627135 -76.147696 237 13986ft 294kts
04-Apr-17 21:03 39.580188 -76.224656 237 13998ft 293kts
04-Apr-17 21:04 39.529932 -76.306700 237 14011ft 294kts
04-Apr-17 21:05 39.480064 -76.387912 237 14011ft 294kts
04-Apr-17 21:06 39.430217 -76.468919 237 13609ft 294kts
04-Apr-17 21:07 39.382051 -76.546997 237 12629ft 292kts
04-Apr-17 21:08 39.337491 -76.619046 237 11715ft 290kts
04-Apr-17 21:09 39.294024 -76.689175 236 10850ft 290kts
04-Apr-17 21:10 39.247507 -76.764063 236 9940ft 288kts
04-Apr-17 21:11 39.203187 -76.835164 237 9019ft 265kts
04-Apr-17 21:12 39.158698 -76.906493 237 8060ft 258kts
04-Apr-17 21:13 39.113595 -76.978635 237 7081ft 260kts
04-Apr-17 21:14 39.069643 -77.048673 238 6034ft 243kts
04-Apr-17 21:15 39.027712 -77.115435 238 4862ft 229kts
04-Apr-17 21:16 38.990926 -77.165860 201 2600ft 190kts
04-Apr-17 21:17 38.952092 -77.135119 143 1353ft 174kts
04-Apr-17 21:18 38.922590 -77.107292 148 831ft 123kts
04-Apr-17 21:19 38.903152 -77.077499 100 450ft 119kts
04-Apr-17 21:20 38.895453 -77.061935 138 284ft 115kts
04-Apr-17 21:21 38.885738 -77.052442 146 272ft 104kts
04-Apr-17 21:22 38.864437 -77.035137 150 113ft 95kts
04-Apr-17 21:23 38.847600 -77.037494 223 17ft 18kts
04-Apr-17 21:24 38.847175 -77.039828 209 17ft 15kts
04-Apr-17 21:25 38.845867 -77.043548 325 17ft 18kts
04-Apr-17 21:26 38.847084 -77.044588 321 17ft 0kts
04-Apr-17 21:27 38.847084 -77.044588 321 17ft 0kts
04-Apr-17 21:28 38.847084 -77.044588 321 17ft 0kts
04-Apr-17 21:29 38.847084 -77.044588 321 17ft 0kts

Navigation Log

Ident Type
Flight plan parsing failed, navigation log unavailable